Time;durP1;ratioP1;P1;durP2;ratioP2;P2;SDS_P1;SDS_P2;PMS_P1;PMS_P2;Temp;Humidity;BMP_temperature;BMP_pressure;BME280_temperature;BME280_humidity;BME280_pressure;Samples;Min_cycle;Max_cycle;Signal;HPM_P1;HPM_P2
2022/03/14 00:01:23;;;;;;;4.93;2.65;;;;;;;;;;5060380;28;20025;-85
2022/03/14 00:03:50;;;;;;;2.97;2.20;;;;;;;;;;5061446;28;20036;-85
2022/03/14 00:06:17;;;;;;;6.60;3.30;;;;;;;;;;5050042;28;20031;-86
2022/03/14 00:08:44;;;;;;;4.22;2.50;;;;;;;;;;5046269;28;20032;-84
2022/03/14 00:11:12;;;;;;;3.80;2.75;;;;;;;;;;5059394;28;20125;-82
2022/03/14 00:13:38;;;;;;;6.95;2.30;;;;;;;;;;5062381;28;20060;-84
2022/03/14 00:16:03;;;;;;;4.65;2.63;;;;;;;;;;5050578;28;20106;-85
2022/03/14 00:18:30;;;;;;;6.70;2.55;;;;;;;;;;5064494;28;20037;-85
2022/03/14 00:20:55;;;;;;;6.30;2.47;;;;;;;;;;5052219;28;20028;-87
2022/03/14 00:23:21;;;;;;;5.43;2.35;;;;;;;;;;5062171;28;20426;-86
2022/03/14 00:25:48;;;;;;;2.85;1.92;;;;;;;;;;5060777;28;20013;-86
2022/03/14 00:28:13;;;;;;;8.32;3.03;;;;;;;;;;5054305;28;20532;-84
2022/03/14 00:30:39;;;;;;;5.03;2.35;;;;;;;;;;5062091;28;20115;-83
2022/03/14 00:33:04;;;;;;;6.00;2.95;;;;;;;;;;5059732;28;21524;-84
2022/03/14 00:35:30;;;;;;;7.32;3.47;;;;;;;;;;5061114;28;20029;-87
2022/03/14 00:37:55;;;;;;;10.82;5.70;;;;;;;;;;5062884;28;20044;-86
2022/03/14 00:40:21;;;;;;;8.10;4.15;;;;;;;;;;5064120;28;20025;-83
2022/03/14 00:42:48;;;;;;;8.68;3.88;;;;;;;;;;5054727;28;20493;-85
2022/03/14 00:45:14;;;;;;;16.10;5.32;;;;;;;;;;5058721;28;20052;-86
2022/03/14 00:47:40;;;;;;;16.65;6.93;;;;;;;;;;5057001;28;20457;-85
2022/03/14 00:50:06;;;;;;;7.93;3.22;;;;;;;;;;5058064;28;20118;-85
2022/03/14 00:52:31;;;;;;;5.50;3.50;;;;;;;;;;5054529;28;20032;-87
2022/03/14 00:54:57;;;;;;;10.55;3.72;;;;;;;;;;5059551;28;20034;-87
2022/03/14 00:57:22;;;;;;;6.88;2.83;;;;;;;;;;5055466;28;20029;-86
2022/03/14 00:59:48;;;;;;;4.30;2.40;;;;;;;;;;5055319;28;20418;-86
2022/03/14 01:02:13;;;;;;;4.93;2.28;;;;;;;;;;5064578;28;20028;-85
2022/03/14 01:04:39;;;;;;;5.32;3.30;;;;;;;;;;5065837;28;20056;-83
2022/03/14 01:07:04;;;;;;;3.45;1.70;;;;;;;;;;5067850;28;20380;-84
2022/03/14 01:09:30;;;;;;;4.28;2.78;;;;;;;;;;5050156;28;20510;-83
2022/03/14 01:11:56;;;;;;;2.72;1.83;;;;;;;;;;5049201;28;20401;-84
2022/03/14 01:14:22;;;;;;;4.55;2.22;;;;;;;;;;5049564;28;20064;-84
2022/03/14 01:16:48;;;;;;;6.03;3.45;;;;;;;;;;5065079;28;20036;-84
2022/03/14 01:19:15;;;;;;;4.22;2.10;;;;;;;;;;5068878;28;20476;-85
2022/03/14 01:21:41;;;;;;;4.47;3.20;;;;;;;;;;5062888;28;20025;-87
2022/03/14 01:24:07;;;;;;;4.03;2.72;;;;;;;;;;5062984;28;20355;-83
2022/03/14 01:26:34;;;;;;;3.85;2.08;;;;;;;;;;5056334;28;20028;-83
2022/03/14 01:29:00;;;;;;;2.83;1.80;;;;;;;;;;5069069;28;20043;-85
2022/03/14 01:31:26;;;;;;;2.95;2.20;;;;;;;;;;5062192;28;20028;-83
2022/03/14 01:33:52;;;;;;;3.10;2.42;;;;;;;;;;5067375;28;20553;-83
2022/03/14 01:36:18;;;;;;;9.18;2.95;;;;;;;;;;5067757;28;20027;-83
2022/03/14 01:38:43;;;;;;;5.15;2.65;;;;;;;;;;5051839;28;20112;-84
2022/03/14 01:41:10;;;;;;;4.10;2.13;;;;;;;;;;5061388;28;20073;-84
2022/03/14 01:43:36;;;;;;;5.10;2.80;;;;;;;;;;5053930;28;20060;-85
2022/03/14 01:46:01;;;;;;;4.88;2.75;;;;;;;;;;5056438;28;20064;-84
2022/03/14 01:48:27;;;;;;;2.95;2.10;;;;;;;;;;5064070;28;20028;-84
2022/03/14 01:50:53;;;;;;;4.82;3.10;;;;;;;;;;5062957;28;21315;-83
2022/03/14 01:53:19;;;;;;;6.68;3.13;;;;;;;;;;5060553;28;20472;-85
2022/03/14 01:55:49;;;;;;;4.18;2.67;;;;;;;;;;5050420;28;20025;-84
2022/03/14 01:58:16;;;;;;;4.40;2.90;;;;;;;;;;5062277;28;20031;-83
2022/03/14 02:00:43;;;;;;;3.15;2.10;;;;;;;;;;5073544;28;20376;-84
2022/03/14 02:03:08;;;;;;;4.43;2.33;;;;;;;;;;5065621;28;20101;-84
2022/03/14 02:05:37;;;;;;;3.90;2.10;;;;;;;;;;5066115;28;20119;-85
2022/03/14 02:08:06;;;;;;;3.92;1.73;;;;;;;;;;5065079;28;20020;-86
2022/03/14 02:10:31;;;;;;;4.30;2.45;;;;;;;;;;5060508;28;20040;-86
2022/03/14 02:12:58;;;;;;;5.05;2.53;;;;;;;;;;5068888;28;20041;-83
2022/03/14 02:15:23;;;;;;;2.63;2.08;;;;;;;;;;5066860;28;20415;-86
2022/03/14 02:17:49;;;;;;;4.47;2.30;;;;;;;;;;5066718;28;20035;-86
2022/03/14 02:20:14;;;;;;;3.90;1.98;;;;;;;;;;5056596;28;20029;-86
2022/03/14 02:22:40;;;;;;;3.15;2.30;;;;;;;;;;5061210;28;20097;-85
2022/03/14 02:25:11;;;;;;;3.55;2.15;;;;;;;;;;5061571;28;20468;-85
2022/03/14 02:27:38;;;;;;;4.15;2.40;;;;;;;;;;5055468;28;20025;-85
2022/03/14 02:30:04;;;;;;;4.00;2.15;;;;;;;;;;5058934;28;20029;-84
2022/03/14 02:32:29;;;;;;;3.63;2.47;;;;;;;;;;5061159;28;20363;-85
2022/03/14 02:34:55;;;;;;;3.22;2.47;;;;;;;;;;5059590;28;20032;-84
2022/03/14 02:37:21;;;;;;;2.72;2.30;;;;;;;;;;5067772;28;20307;-84
2022/03/14 02:39:47;;;;;;;4.15;2.88;;;;;;;;;;5062316;28;20079;-84
2022/03/14 02:42:13;;;;;;;5.95;2.28;;;;;;;;;;5065245;28;20025;-84
2022/03/14 02:44:41;;;;;;;3.33;2.10;;;;;;;;;;5064754;28;20035;-82
2022/03/14 02:47:08;;;;;;;5.90;2.83;;;;;;;;;;5063392;28;20435;-86
2022/03/14 02:49:34;;;;;;;5.63;2.90;;;;;;;;;;5055276;28;20024;-82
2022/03/14 02:52:00;;;;;;;4.57;2.45;;;;;;;;;;5061548;28;20495;-85
2022/03/14 02:54:26;;;;;;;5.55;2.55;;;;;;;;;;5066309;28;20437;-82
2022/03/14 02:56:52;;;;;;;4.60;3.05;;;;;;;;;;5060408;28;20166;-84
2022/03/14 02:59:19;;;;;;;3.75;2.35;;;;;;;;;;5055795;28;20238;-86
2022/03/14 03:01:44;;;;;;;3.78;2.33;;;;;;;;;;5064753;28;20029;-85
2022/03/14 03:04:10;;;;;;;4.53;2.88;;;;;;;;;;5066723;28;20029;-85
2022/03/14 03:06:36;;;;;;;4.85;2.67;;;;;;;;;;5051858;28;20025;-84
2022/03/14 03:09:03;;;;;;;2.97;1.77;;;;;;;;;;5057484;28;20025;-85
2022/03/14 03:11:30;;;;;;;5.43;2.92;;;;;;;;;;5060599;28;20064;-89
2022/03/14 03:13:56;;;;;;;3.28;2.53;;;;;;;;;;5064317;28;20036;-88
2022/03/14 03:16:22;;;;;;;5.07;2.88;;;;;;;;;;5058284;28;20108;-88
2022/03/14 03:18:48;;;;;;;8.23;2.67;;;;;;;;;;5052654;28;20435;-87
2022/03/14 03:21:15;;;;;;;5.38;2.75;;;;;;;;;;5061002;28;20429;-88
2022/03/14 03:23:41;;;;;;;3.40;2.40;;;;;;;;;;5060849;28;20036;-87
2022/03/14 03:26:07;;;;;;;4.82;2.72;;;;;;;;;;5057205;28;20024;-89
2022/03/14 03:28:36;;;;;;;3.97;2.60;;;;;;;;;;5060362;28;20375;-88
2022/03/14 03:31:06;;;;;;;4.75;1.60;;;;;;;;;;5057544;28;20029;-88
2022/03/14 03:33:31;;;;;;;3.17;1.77;;;;;;;;;;5065857;28;20060;-85
2022/03/14 03:35:57;;;;;;;3.15;2.33;;;;;;;;;;5061845;28;20503;-84
2022/03/14 03:38:22;;;;;;;4.22;2.58;;;;;;;;;;5052546;28;21232;-86
2022/03/14 03:40:48;;;;;;;5.60;2.92;;;;;;;;;;5052151;28;20033;-85
2022/03/14 03:43:14;;;;;;;5.63;2.67;;;;;;;;;;5050891;28;20074;-85
2022/03/14 03:45:40;;;;;;;6.63;2.10;;;;;;;;;;5051195;28;20402;-84
2022/03/14 03:48:05;;;;;;;3.05;2.20;;;;;;;;;;5067995;28;20037;-86
2022/03/14 03:50:31;;;;;;;4.70;2.60;;;;;;;;;;5061728;28;20499;-86
2022/03/14 03:52:57;;;;;;;3.65;2.17;;;;;;;;;;5056538;28;20029;-86
2022/03/14 03:55:22;;;;;;;4.63;2.60;;;;;;;;;;5061370;28;20055;-86
2022/03/14 03:57:48;;;;;;;2.65;2.15;;;;;;;;;;5052060;28;20025;-85
2022/03/14 04:00:14;;;;;;;3.92;2.33;;;;;;;;;;5059271;28;20020;-85
2022/03/14 04:02:42;;;;;;;5.50;2.90;;;;;;;;;;5061482;28;20040;-85
2022/03/14 04:05:08;;;;;;;4.43;2.22;;;;;;;;;;5052946;28;20017;-84
2022/03/14 04:07:34;;;;;;;5.30;2.72;;;;;;;;;;5058847;28;20028;-85
2022/03/14 04:10:00;;;;;;;4.03;2.38;;;;;;;;;;5070628;28;20063;-85
2022/03/14 04:12:26;;;;;;;4.80;2.75;;;;;;;;;;5060783;28;20031;-87
2022/03/14 04:14:54;;;;;;;4.55;3.08;;;;;;;;;;5053630;28;20024;-89
2022/03/14 04:17:19;;;;;;;5.40;2.78;;;;;;;;;;5069458;28;20585;-87
2022/03/14 04:19:46;;;;;;;5.40;3.08;;;;;;;;;;5068747;28;20028;-87
2022/03/14 04:22:14;;;;;;;5.65;2.78;;;;;;;;;;5054016;28;20479;-88
2022/03/14 04:24:40;;;;;;;4.60;3.15;;;;;;;;;;5062244;28;20461;-89
2022/03/14 04:27:05;;;;;;;4.15;2.90;;;;;;;;;;5053840;28;20104;-87
2022/03/14 04:29:31;;;;;;;3.38;2.15;;;;;;;;;;5061549;28;20039;-88
2022/03/14 04:31:56;;;;;;;3.13;2.20;;;;;;;;;;5061483;28;20028;-87
2022/03/14 04:34:22;;;;;;;5.45;2.47;;;;;;;;;;5064288;28;20039;-87
2022/03/14 04:36:50;;;;;;;4.80;3.03;;;;;;;;;;5057725;28;20033;-89
2022/03/14 04:39:20;;;;;;;6.57;3.60;;;;;;;;;;5055059;28;20456;-88
2022/03/14 04:41:46;;;;;;;4.55;2.83;;;;;;;;;;5059826;28;20485;-88
2022/03/14 04:44:12;;;;;;;3.08;2.03;;;;;;;;;;5063082;28;20488;-87
2022/03/14 04:46:37;;;;;;;3.85;2.28;;;;;;;;;;5059781;28;20029;-87
2022/03/14 04:49:04;;;;;;;4.30;2.22;;;;;;;;;;5057423;28;20033;-86
2022/03/14 04:51:31;;;;;;;3.67;2.30;;;;;;;;;;5069818;28;20052;-85
2022/03/14 04:53:57;;;;;;;3.97;2.53;;;;;;;;;;5059982;28;20107;-84
2022/03/14 04:56:23;;;;;;;4.95;3.25;;;;;;;;;;5065337;28;20495;-84
2022/03/14 04:58:49;;;;;;;4.47;2.50;;;;;;;;;;5050018;28;20075;-86
2022/03/14 05:01:15;;;;;;;4.95;2.60;;;;;;;;;;5062352;28;20060;-86
2022/03/14 05:03:40;;;;;;;2.50;1.65;;;;;;;;;;5052437;28;20483;-88
2022/03/14 05:06:06;;;;;;;4.07;2.67;;;;;;;;;;5053032;28;20063;-86
2022/03/14 05:08:31;;;;;;;5.68;3.90;;;;;;;;;;5058224;28;20040;-88
2022/03/14 05:10:58;;;;;;;4.55;2.50;;;;;;;;;;5068568;28;20136;-85
2022/03/14 05:13:23;;;;;;;3.58;2.60;;;;;;;;;;5063124;28;20031;-85
2022/03/14 05:15:49;;;;;;;8.13;5.47;;;;;;;;;;5058249;28;20020;-84
2022/03/14 05:18:15;;;;;;;5.45;3.22;;;;;;;;;;5057499;28;20468;-85
2022/03/14 05:20:40;;;;;;;3.88;2.75;;;;;;;;;;5061518;28;20040;-87
2022/03/14 05:23:06;;;;;;;5.63;3.20;;;;;;;;;;5062725;28;20434;-86
2022/03/14 05:25:32;;;;;;;5.88;3.42;;;;;;;;;;5061164;28;20456;-85
2022/03/14 05:27:57;;;;;;;9.32;4.85;;;;;;;;;;5068574;28;20028;-86
2022/03/14 05:30:24;;;;;;;11.93;6.65;;;;;;;;;;5062473;28;20020;-87
2022/03/14 05:32:50;;;;;;;9.38;5.82;;;;;;;;;;5062587;28;20032;-87
2022/03/14 05:35:16;;;;;;;11.45;4.97;;;;;;;;;;5069823;28;20034;-86
2022/03/14 05:37:42;;;;;;;7.45;3.97;;;;;;;;;;5061900;28;20069;-85
2022/03/14 05:40:09;;;;;;;8.88;4.88;;;;;;;;;;5070528;28;20178;-85
2022/03/14 05:42:34;;;;;;;8.45;5.03;;;;;;;;;;5062402;28;20060;-85
2022/03/14 05:45:00;;;;;;;13.18;8.30;;;;;;;;;;5059033;28;20117;-86
2022/03/14 05:47:26;;;;;;;12.98;8.27;;;;;;;;;;5064472;28;20028;-86
2022/03/14 05:49:51;;;;;;;17.38;11.00;;;;;;;;;;5055900;28;20074;-87
2022/03/14 05:52:19;;;;;;;19.70;11.25;;;;;;;;;;5070514;28;20024;-84
2022/03/14 05:54:45;;;;;;;20.33;12.73;;;;;;;;;;5056715;28;20388;-86
2022/03/14 05:57:10;;;;;;;15.85;10.93;;;;;;;;;;5060213;28;20029;-85
2022/03/14 05:59:36;;;;;;;15.57;9.93;;;;;;;;;;5061948;28;20538;-88
2022/03/14 06:02:01;;;;;;;19.40;12.50;;;;;;;;;;5061809;28;20025;-84
2022/03/14 06:04:27;;;;;;;22.50;13.18;;;;;;;;;;5057315;28;20032;-86
2022/03/14 06:06:53;;;;;;;27.40;15.80;;;;;;;;;;5061649;28;20459;-90
2022/03/14 06:09:19;;;;;;;23.20;14.93;;;;;;;;;;5065511;28;20056;-85
2022/03/14 06:11:45;;;;;;;25.60;15.35;;;;;;;;;;5057357;28;20361;-88
2022/03/14 06:14:11;;;;;;;25.48;15.50;;;;;;;;;;5053883;28;20060;-86
2022/03/14 06:16:36;;;;;;;24.10;15.05;;;;;;;;;;5066090;28;20059;-87
2022/03/14 06:19:02;;;;;;;24.33;16.33;;;;;;;;;;5058090;28;20036;-85
2022/03/14 06:21:27;;;;;;;25.27;15.88;;;;;;;;;;5049873;28;20559;-88
2022/03/14 06:23:53;;;;;;;26.63;17.10;;;;;;;;;;5051207;28;20035;-87
2022/03/14 06:26:18;;;;;;;26.85;15.82;;;;;;;;;;5055187;28;20412;-87
2022/03/14 06:28:44;;;;;;;29.23;17.85;;;;;;;;;;5055310;28;20083;-89
2022/03/14 06:31:11;;;;;;;27.65;16.02;;;;;;;;;;5044874;28;20036;-86
2022/03/14 06:33:39;;;;;;;29.25;17.80;;;;;;;;;;5051192;28;20029;-88
2022/03/14 06:36:05;;;;;;;31.05;18.05;;;;;;;;;;5059080;28;20024;-88
2022/03/14 06:38:35;;;;;;;33.55;17.00;;;;;;;;;;5071220;28;20151;-87
2022/03/14 06:41:01;;;;;;;31.23;17.17;;;;;;;;;;5070832;28;20479;-84
2022/03/14 06:43:28;;;;;;;29.45;18.02;;;;;;;;;;5060735;28;20031;-87
2022/03/14 06:45:53;;;;;;;34.13;20.27;;;;;;;;;;5051794;28;20115;-84
2022/03/14 06:48:19;;;;;;;35.47;19.50;;;;;;;;;;5059026;28;20548;-87
2022/03/14 06:50:44;;;;;;;28.90;19.90;;;;;;;;;;5048560;28;20032;-86
2022/03/14 06:53:10;;;;;;;26.20;15.98;;;;;;;;;;5061536;28;20030;-88
2022/03/14 06:55:35;;;;;;;33.33;17.42;;;;;;;;;;5049866;28;20401;-85
2022/03/14 06:58:02;;;;;;;36.95;17.23;;;;;;;;;;5068457;28;20084;-87
2022/03/14 07:00:27;;;;;;;28.25;15.68;;;;;;;;;;5059800;28;20029;-85
2022/03/14 07:02:53;;;;;;;28.13;15.52;;;;;;;;;;5051408;28;20037;-85
2022/03/14 07:05:21;;;;;;;26.00;16.90;;;;;;;;;;5071355;28;20115;-86
2022/03/14 07:07:50;;;;;;;25.25;14.48;;;;;;;;;;5063776;28;20506;-87
2022/03/14 07:10:17;;;;;;;24.70;14.73;;;;;;;;;;5061135;28;20404;-88
2022/03/14 07:12:47;;;;;;;22.45;14.00;;;;;;;;;;5046302;28;20036;-90
2022/03/14 07:15:16;;;;;;;26.63;15.68;;;;;;;;;;5052042;28;20025;-88
2022/03/14 07:17:42;;;;;;;20.55;14.65;;;;;;;;;;5050722;28;20570;-88
2022/03/14 07:20:09;;;;;;;22.77;14.10;;;;;;;;;;5046285;28;20028;-89
2022/03/14 07:22:46;;;;;;;21.88;13.82;;;;;;;;;;5049246;28;20132;-86
2022/03/14 07:25:12;;;;;;;23.38;15.15;;;;;;;;;;5049826;28;20427;-85
2022/03/14 07:27:37;;;;;;;29.10;15.10;;;;;;;;;;5050794;28;20041;-86
2022/03/14 07:30:03;;;;;;;27.20;16.30;;;;;;;;;;5050165;28;20028;-85
2022/03/14 07:32:28;;;;;;;30.98;16.00;;;;;;;;;;5051061;28;20043;-86
2022/03/14 07:34:54;;;;;;;33.15;18.02;;;;;;;;;;5051290;28;20163;-87
2022/03/14 07:37:19;;;;;;;27.40;17.70;;;;;;;;;;5049061;28;20027;-84
2022/03/14 07:39:45;;;;;;;35.83;16.75;;;;;;;;;;5047850;28;20044;-86
2022/03/14 07:42:10;;;;;;;28.85;18.20;;;;;;;;;;5056218;28;20099;-87
2022/03/14 07:44:36;;;;;;;30.48;17.88;;;;;;;;;;5053758;28;20039;-85
2022/03/14 07:47:03;;;;;;;34.88;18.13;;;;;;;;;;5052993;28;20027;-84
2022/03/14 07:49:29;;;;;;;34.67;18.98;;;;;;;;;;5047462;28;20175;-87
2022/03/14 07:51:54;;;;;;;31.13;19.42;;;;;;;;;;5049500;28;20510;-87
2022/03/14 07:54:20;;;;;;;40.50;22.95;;;;;;;;;;5064804;28;20525;-86
2022/03/14 07:56:45;;;;;;;39.63;21.35;;;;;;;;;;5069542;28;20025;-84
2022/03/14 07:59:11;;;;;;;35.08;17.67;;;;;;;;;;5060005;28;20032;-83
2022/03/14 08:01:36;;;;;;;33.75;18.83;;;;;;;;;;5064687;28;20392;-82
2022/03/14 08:04:02;;;;;;;36.33;20.38;;;;;;;;;;5069650;28;20474;-83
2022/03/14 08:06:27;;;;;;;34.42;17.63;;;;;;;;;;5054655;28;20537;-82
2022/03/14 08:08:53;;;;;;;37.45;18.23;;;;;;;;;;5070347;28;20446;-82
2022/03/14 08:11:18;;;;;;;36.97;19.13;;;;;;;;;;5063166;28;20041;-82
2022/03/14 08:13:44;;;;;;;33.10;18.77;;;;;;;;;;5066717;28;20024;-83
2022/03/14 08:16:10;;;;;;;29.08;15.38;;;;;;;;;;5055669;28;20028;-84
2022/03/14 08:18:35;;;;;;;34.30;17.40;;;;;;;;;;5061377;28;20029;-83
2022/03/14 08:21:02;;;;;;;26.67;17.05;;;;;;;;;;5063587;28;20048;-84
2022/03/14 08:23:27;;;;;;;29.88;17.95;;;;;;;;;;5049460;28;20481;-83
2022/03/14 08:25:56;;;;;;;30.85;16.83;;;;;;;;;;5054941;28;20070;-84
2022/03/14 08:28:22;;;;;;;29.40;18.05;;;;;;;;;;5048396;28;20031;-84
2022/03/14 08:30:48;;;;;;;34.10;17.55;;;;;;;;;;5051088;28;20017;-84
2022/03/14 08:33:14;;;;;;;44.05;26.73;;;;;;;;;;5045898;28;20037;-83
2022/03/14 08:35:39;;;;;;;38.92;21.08;;;;;;;;;;5048984;28;20035;-83
2022/03/14 08:38:05;;;;;;;26.83;15.48;;;;;;;;;;5055027;28;20426;-84
2022/03/14 08:40:30;;;;;;;25.35;14.05;;;;;;;;;;5063620;28;20040;-83
2022/03/14 08:42:57;;;;;;;26.63;16.17;;;;;;;;;;5063922;28;20032;-84
2022/03/14 08:45:24;;;;;;;30.75;14.57;;;;;;;;;;5066991;28;20134;-85
2022/03/14 08:47:50;;;;;;;30.20;16.10;;;;;;;;;;5070303;28;20027;-85
2022/03/14 08:50:16;;;;;;;27.25;14.63;;;;;;;;;;5074253;28;20024;-82
2022/03/14 08:52:45;;;;;;;21.67;13.05;;;;;;;;;;5071518;28;20174;-83
2022/03/14 08:55:11;;;;;;;27.65;13.77;;;;;;;;;;5058276;28;20392;-82
2022/03/14 08:57:37;;;;;;;21.55;12.40;;;;;;;;;;5054285;28;20049;-81
2022/03/14 09:00:04;;;;;;;17.73;9.65;;;;;;;;;;5058675;28;20491;-87
2022/03/14 09:02:29;;;;;;;21.73;8.93;;;;;;;;;;5048826;28;20036;-82
2022/03/14 09:04:55;;;;;;;16.92;8.40;;;;;;;;;;5059367;28;20028;-85
2022/03/14 09:07:25;;;;;;;14.73;7.22;;;;;;;;;;5061178;28;20043;-85
2022/03/14 09:09:50;;;;;;;13.32;6.10;;;;;;;;;;5064965;28;20052;-85
2022/03/14 09:12:16;;;;;;;10.52;7.72;;;;;;;;;;5053348;28;20040;-87
2022/03/14 09:14:42;;;;;;;12.05;7.32;;;;;;;;;;5053155;28;20075;-81
2022/03/14 09:17:07;;;;;;;15.85;6.75;;;;;;;;;;5054801;28;20025;-83
2022/03/14 09:19:34;;;;;;;9.65;5.13;;;;;;;;;;5056016;28;20025;-81
2022/03/14 09:21:59;;;;;;;9.43;4.85;;;;;;;;;;5054403;28;20042;-85
2022/03/14 09:24:26;;;;;;;8.77;4.97;;;;;;;;;;5052700;28;20029;-85
2022/03/14 09:26:53;;;;;;;9.73;4.95;;;;;;;;;;5055110;28;20428;-85
2022/03/14 09:29:18;;;;;;;6.45;4.22;;;;;;;;;;5053127;28;20473;-85
2022/03/14 09:31:43;;;;;;;5.80;4.07;;;;;;;;;;5050228;28;20033;-85
2022/03/14 09:34:09;;;;;;;8.00;5.28;;;;;;;;;;5056544;28;20033;-85
2022/03/14 09:36:34;;;;;;;6.03;3.58;;;;;;;;;;5053617;28;20074;-85
2022/03/14 09:39:00;;;;;;;6.13;3.92;;;;;;;;;;5051790;28;20121;-85
2022/03/14 09:41:29;;;;;;;13.35;4.95;;;;;;;;;;5061613;28;20028;-86
2022/03/14 09:43:58;;;;;;;8.90;4.18;;;;;;;;;;5056065;28;20032;-87
2022/03/14 09:46:25;;;;;;;7.05;3.95;;;;;;;;;;5054696;28;20029;-87
2022/03/14 09:48:57;;;;;;;6.68;4.00;;;;;;;;;;5051676;28;20036;-85
2022/03/14 09:51:23;;;;;;;5.82;3.10;;;;;;;;;;5057451;28;20029;-88
2022/03/14 09:53:50;;;;;;;6.72;3.17;;;;;;;;;;5055311;28;20496;-86
2022/03/14 09:56:15;;;;;;;4.90;2.72;;;;;;;;;;5057290;28;20461;-85
2022/03/14 09:58:44;;;;;;;5.50;3.50;;;;;;;;;;5050054;28;20020;-86
2022/03/14 10:01:10;;;;;;;4.50;2.83;;;;;;;;;;5057195;28;20151;-85
2022/03/14 10:03:36;;;;;;;9.25;4.15;;;;;;;;;;5062952;28;20107;-86
2022/03/14 10:06:02;;;;;;;5.38;3.47;;;;;;;;;;5052789;28;20032;-85
2022/03/14 10:08:27;;;;;;;8.07;4.28;;;;;;;;;;5058128;28;20427;-86
2022/03/14 10:10:53;;;;;;;7.20;4.40;;;;;;;;;;5049010;28;20426;-86
2022/03/14 10:13:18;;;;;;;8.00;4.25;;;;;;;;;;5059979;28;20392;-86
2022/03/14 10:15:45;;;;;;;5.30;3.20;;;;;;;;;;5048397;28;20033;-87
2022/03/14 10:18:13;;;;;;;8.60;4.32;;;;;;;;;;5049144;28;20041;-88
2022/03/14 10:21:05;;;;;;;6.45;3.78;;;;;;;;;;5052363;28;20036;-85
2022/03/14 10:23:43;;;;;;;6.43;3.67;;;;;;;;;;5052979;28;20036;-86
2022/03/14 10:26:17;;;;;;;8.07;4.03;;;;;;;;;;5052180;28;20125;-86
2022/03/14 10:28:49;;;;;;;5.63;3.35;;;;;;;;;;5055716;28;20020;-86
2022/03/14 10:31:26;;;;;;;6.80;3.08;;;;;;;;;;5051007;28;20388;-87
2022/03/14 10:33:52;;;;;;;8.93;4.75;;;;;;;;;;5055393;28;20028;-87
2022/03/14 10:36:37;;;;;;;4.70;3.10;;;;;;;;;;5055374;28;20025;-86
2022/03/14 10:39:16;;;;;;;6.07;3.40;;;;;;;;;;5056468;28;20094;-86
2022/03/14 10:41:45;;;;;;;5.40;3.77;;;;;;;;;;5056934;28;20028;-87
2022/03/14 10:44:22;;;;;;;5.25;3.38;;;;;;;;;;5048989;28;20041;-88
2022/03/14 10:46:48;;;;;;;5.47;3.33;;;;;;;;;;5058840;28;20101;-87
2022/03/14 10:49:15;;;;;;;5.72;3.17;;;;;;;;;;5055188;28;20100;-88
2022/03/14 10:51:58;;;;;;;8.00;3.70;;;;;;;;;;5054235;28;20480;-87
2022/03/14 10:54:25;;;;;;;6.75;3.85;;;;;;;;;;5050366;28;20017;-87
2022/03/14 10:57:10;;;;;;;5.05;3.50;;;;;;;;;;5052873;28;20028;-87
2022/03/14 10:59:41;;;;;;;6.90;3.35;;;;;;;;;;5082195;28;20035;-86
2022/03/14 11:02:12;;;;;;;5.68;3.15;;;;;;;;;;5050100;28;20075;-86
2022/03/14 11:04:51;;;;;;;7.40;3.42;;;;;;;;;;5055756;28;20037;-86
2022/03/14 11:07:18;;;;;;;5.83;3.50;;;;;;;;;;5050993;28;20024;-86
2022/03/14 11:09:49;;;;;;;6.43;3.72;;;;;;;;;;5050773;28;20089;-85
2022/03/14 11:12:20;;;;;;;5.63;2.92;;;;;;;;;;5053451;28;20039;-86
2022/03/14 11:15:07;;;;;;;6.22;4.07;;;;;;;;;;5056745;28;20109;-86
2022/03/14 11:17:35;;;;;;;7.72;4.38;;;;;;;;;;5058282;28;20021;-84
2022/03/14 11:20:01;;;;;;;6.30;3.80;;;;;;;;;;5056141;28;20097;-86
2022/03/14 11:22:28;;;;;;;9.10;4.07;;;;;;;;;;5055448;28;20033;-86
2022/03/14 11:24:56;;;;;;;5.65;3.53;;;;;;;;;;5056039;28;20029;-84
2022/03/14 11:27:43;;;;;;;6.47;3.50;;;;;;;;;;5062708;28;20358;-85
2022/03/14 11:30:11;;;;;;;4.50;3.17;;;;;;;;;;5061272;28;20116;-88
2022/03/14 11:32:37;;;;;;;7.32;3.97;;;;;;;;;;5054307;28;20107;-85
2022/03/14 11:35:07;;;;;;;5.47;3.65;;;;;;;;;;5054739;28;20372;-84
2022/03/14 11:37:33;;;;;;;4.97;3.47;;;;;;;;;;5056742;28;20031;-85
2022/03/14 11:40:01;;;;;;;7.25;3.85;;;;;;;;;;5059762;28;20063;-84
2022/03/14 11:42:26;;;;;;;7.63;3.88;;;;;;;;;;5052901;28;20028;-84
2022/03/14 11:44:53;;;;;;;8.43;4.22;;;;;;;;;;5051447;28;20032;-84
2022/03/14 11:47:20;;;;;;;8.73;5.28;;;;;;;;;;5060427;28;20579;-82
2022/03/14 11:49:46;;;;;;;7.30;3.90;;;;;;;;;;5054603;28;20021;-85
2022/03/14 11:52:19;;;;;;;7.68;4.00;;;;;;;;;;5065960;28;20020;-83
2022/03/14 11:54:48;;;;;;;7.57;4.10;;;;;;;;;;5057118;28;20033;-83
2022/03/14 11:57:33;;;;;;;9.70;4.65;;;;;;;;;;5053636;28;20041;-83
2022/03/14 12:00:20;;;;;;;10.18;5.97;;;;;;;;;;5062419;28;20079;-83
2022/03/14 12:02:46;;;;;;;6.80;4.25;;;;;;;;;;5056833;28;20048;-84
2022/03/14 12:05:11;;;;;;;7.47;4.18;;;;;;;;;;5054066;28;20493;-85
2022/03/14 12:07:37;;;;;;;8.40;4.25;;;;;;;;;;5065266;28;20404;-84
2022/03/14 12:10:29;;;;;;;8.27;5.00;;;;;;;;;;5049213;28;20084;-83
2022/03/14 12:12:58;;;;;;;11.02;5.40;;;;;;;;;;5049168;28;20055;-83
2022/03/14 12:15:36;;;;;;;8.90;4.25;;;;;;;;;;5053497;28;20025;-84
2022/03/14 12:18:02;;;;;;;10.98;5.05;;;;;;;;;;5047281;28;20112;-84
2022/03/14 12:20:29;;;;;;;7.85;4.53;;;;;;;;;;5049890;28;20129;-85
2022/03/14 12:22:55;;;;;;;7.38;4.40;;;;;;;;;;5050662;28;20025;-84
2022/03/14 12:25:42;;;;;;;11.93;4.75;;;;;;;;;;5059648;28;20561;-84
2022/03/14 12:28:31;;;;;;;9.77;5.93;;;;;;;;;;5050737;28;20039;-84
2022/03/14 12:31:08;;;;;;;8.27;4.97;;;;;;;;;;5051909;28;20021;-85
2022/03/14 12:33:36;;;;;;;7.82;4.63;;;;;;;;;;5049691;28;20327;-83
2022/03/14 12:36:23;;;;;;;10.40;5.63;;;;;;;;;;5048795;28;20389;-84
2022/03/14 12:39:11;;;;;;;7.68;5.30;;;;;;;;;;5045771;28;20059;-85
2022/03/14 12:41:39;;;;;;;9.13;5.05;;;;;;;;;;5048440;28;20036;-86
2022/03/14 12:44:21;;;;;;;11.82;5.70;;;;;;;;;;5049427;28;20128;-87
2022/03/14 12:46:49;;;;;;;8.07;4.93;;;;;;;;;;5050803;28;20028;-87
2022/03/14 12:49:48;;;;;;;10.90;6.85;;;;;;;;;;5053633;28;20028;-85
2022/03/14 12:52:18;;;;;;;10.00;6.30;;;;;;;;;;5064027;28;20078;-84
2022/03/14 12:54:46;;;;;;;9.95;5.50;;;;;;;;;;5055721;28;20029;-87
2022/03/14 12:57:12;;;;;;;15.32;8.52;;;;;;;;;;5058140;28;20025;-83
2022/03/14 12:59:44;;;;;;;9.25;6.18;;;;;;;;;;5055009;28;20524;-86
2022/03/14 13:02:26;;;;;;;9.25;6.10;;;;;;;;;;5047643;28;20067;-84
2022/03/14 13:05:00;;;;;;;9.40;6.38;;;;;;;;;;5050614;28;20108;-86
2022/03/14 13:07:27;;;;;;;13.23;8.27;;;;;;;;;;5044858;28;20029;-86
2022/03/14 13:09:58;;;;;;;13.85;7.40;;;;;;;;;;5048865;28;20099;-86
2022/03/14 13:12:25;;;;;;;8.70;6.05;;;;;;;;;;5049522;28;20033;-85
2022/03/14 13:14:51;;;;;;;30.83;16.35;;;;;;;;;;5048280;28;20029;-84
2022/03/14 13:17:25;;;;;;;42.22;20.40;;;;;;;;;;5047208;28;20029;-84
2022/03/14 13:19:53;;;;;;;16.08;8.48;;;;;;;;;;5057941;28;20103;-83
2022/03/14 13:22:20;;;;;;;13.82;7.65;;;;;;;;;;5051357;28;20082;-84
2022/03/14 13:24:46;;;;;;;10.65;6.00;;;;;;;;;;5050260;28;20036;-84
2022/03/14 13:27:19;;;;;;;9.32;5.57;;;;;;;;;;5053357;28;20021;-85
2022/03/14 13:29:46;;;;;;;10.50;6.50;;;;;;;;;;5059837;28;20491;-85
2022/03/14 13:32:20;;;;;;;8.50;6.28;;;;;;;;;;5049880;28;20035;-83
2022/03/14 13:35:09;;;;;;;10.68;7.00;;;;;;;;;;5055875;28;20555;-85
2022/03/14 13:37:45;;;;;;;11.50;6.32;;;;;;;;;;5056295;28;20434;-87
2022/03/14 13:40:22;;;;;;;9.48;6.65;;;;;;;;;;5052464;28;20465;-85
2022/03/14 13:42:50;;;;;;;12.20;8.20;;;;;;;;;;5058752;28;20107;-85
2022/03/14 13:45:21;;;;;;;21.25;13.07;;;;;;;;;;5060379;28;20435;-85
2022/03/14 13:47:53;;;;;;;12.00;7.25;;;;;;;;;;5061138;28;20024;-84
2022/03/14 13:50:19;;;;;;;8.60;6.55;;;;;;;;;;5061664;28;20082;-84
2022/03/14 13:52:51;;;;;;;7.43;6.13;;;;;;;;;;5054776;28;20021;-85
2022/03/14 13:55:17;;;;;;;9.93;6.65;;;;;;;;;;5079172;28;20033;-84
2022/03/14 13:57:45;;;;;;;9.70;6.45;;;;;;;;;;5051613;28;20029;-84
2022/03/14 14:00:15;;;;;;;10.18;6.30;;;;;;;;;;5055249;28;20447;-84
2022/03/14 14:02:41;;;;;;;9.68;6.40;;;;;;;;;;5048949;28;20025;-84
2022/03/14 14:05:11;;;;;;;9.45;6.70;;;;;;;;;;5054065;28;20388;-84
2022/03/14 14:07:57;;;;;;;11.25;6.80;;;;;;;;;;5052855;28;20032;-86
2022/03/14 14:10:22;;;;;;;10.55;6.75;;;;;;;;;;5053466;28;20045;-87
2022/03/14 14:12:59;;;;;;;10.45;6.30;;;;;;;;;;5050432;28;20094;-86
2022/03/14 14:15:44;;;;;;;10.60;6.68;;;;;;;;;;5046537;28;20074;-85
2022/03/14 14:18:25;;;;;;;10.32;6.63;;;;;;;;;;5061536;28;20032;-86
2022/03/14 14:20:54;;;;;;;10.13;6.60;;;;;;;;;;5060513;28;20021;-87
2022/03/14 14:23:21;;;;;;;11.27;6.47;;;;;;;;;;5051086;28;20024;-87
2022/03/14 14:25:49;;;;;;;9.25;6.57;;;;;;;;;;5055252;28;20043;-86
2022/03/14 14:28:19;;;;;;;10.50;6.88;;;;;;;;;;5049821;28;20445;-86
2022/03/14 14:30:45;;;;;;;;;;;;;;;;;;5060037;28;20028;-89
2022/03/14 14:33:20;;;;;;;12.77;8.05;;;;;;;;;;5053590;28;19919;-87
2022/03/14 14:35:52;;;;;;;10.23;6.57;;;;;;;;;;5062152;28;20025;-87
2022/03/14 14:38:21;;;;;;;10.43;6.97;;;;;;;;;;5063141;28;20107;-87
2022/03/14 14:40:52;;;;;;;11.68;7.93;;;;;;;;;;5060172;28;20106;-86